Time;durP1;ratioP1;P1;durP2;ratioP2;P2;SDS_P1;SDS_P2;PMS_P1;PMS_P2;Temp;Humidity;BMP_temperature;BMP_pressure;BME280_temperature;BME280_humidity;BME280_pressure;Samples;Min_cycle;Max_cycle;Signal;HPM_P1;HPM_P2
2022/04/21 00:01:03;;;;;;;11.52;9.85;;;;;;;8.10;63.69;97422.69;10064123;29;20056;-83
2022/04/21 00:06:24;;;;;;;13.48;10.63;;;;;;;8.11;64.00;97417.88;10063103;29;20049;-82
2022/04/21 00:11:45;;;;;;;10.32;9.27;;;;;;;8.12;63.99;97411.72;10074952;29;20061;-82
2022/04/21 00:17:08;;;;;;;11.60;9.60;;;;;;;8.13;64.02;97409.69;10076049;29;20045;-83
2022/04/21 00:28:09;;;;;;;13.27;10.07;;;;;;;8.18;64.06;97403.81;10090711;29;20049;-83
2022/04/21 00:33:31;;;;;;;11.38;10.18;;;;;;;8.17;64.03;97396.78;10074670;29;20053;-83
2022/04/21 00:38:52;;;;;;;10.77;9.68;;;;;;;8.15;64.21;97393.88;10060870;29;20162;-83
2022/04/21 00:44:13;;;;;;;12.90;9.15;;;;;;;8.15;64.11;97390.34;10088208;29;20060;-83
2022/04/21 00:49:33;;;;;;;11.80;9.48;;;;;;;8.14;64.20;97386.84;10061148;29;20057;-81
2022/04/21 00:54:55;;;;;;;11.57;9.50;;;;;;;8.16;64.40;97377.91;10062040;29;20045;-82
2022/04/21 01:00:17;;;;;;;10.85;9.48;;;;;;;8.18;64.60;97384.34;10056787;29;20029;-83
2022/04/21 01:05:37;;;;;;;11.60;9.68;;;;;;;8.21;64.25;97382.44;10052373;29;20045;-82
2022/04/21 01:10:59;;;;;;;11.32;9.55;;;;;;;8.19;64.58;97373.94;10040097;29;20044;-83
2022/04/21 01:16:20;;;;;;;11.48;9.80;;;;;;;8.18;64.33;97372.50;10039781;29;20054;-81
2022/04/21 01:21:42;;;;;;;10.30;9.20;;;;;;;8.18;64.22;97373.22;10048848;29;20074;-81
2022/04/21 01:27:03;;;;;;;12.10;10.00;;;;;;;8.18;64.71;97373.22;10041450;29;20057;-81
2022/04/21 01:32:24;;;;;;;11.93;9.80;;;;;;;8.14;64.52;97367.38;10050655;29;20072;-82
2022/04/21 01:43:25;;;;;;;11.30;9.55;;;;;;;8.11;64.80;97357.44;10055490;29;20061;-81
2022/04/21 01:48:46;;;;;;;13.00;9.98;;;;;;;8.13;65.20;97354.81;10056496;29;20401;-82
2022/04/21 01:54:06;;;;;;;9.98;8.65;;;;;;;8.12;64.94;97356.13;10037055;29;20058;-82
2022/04/21 01:59:28;;;;;;;10.48;9.38;;;;;;;8.09;65.11;97354.50;10067948;29;20050;-82
2022/04/21 02:04:50;;;;;;;11.85;9.93;;;;;;;8.11;65.13;97346.31;10068229;29;20049;-82
2022/04/21 02:10:15;;;;;;;12.02;9.82;;;;;;;8.10;65.06;97339.28;10061812;29;20052;-81
2022/04/21 02:15:37;;;;;;;13.65;10.98;;;;;;;8.06;65.14;97339.00;10049355;29;20076;-80
2022/04/21 02:20:58;;;;;;;15.30;11.60;;;;;;;8.09;65.11;97342.66;10056734;29;20041;-82
2022/04/21 02:26:19;;;;;;;13.20;11.32;;;;;;;8.06;65.39;97333.44;10060531;29;20046;-82
2022/04/21 02:31:39;;;;;;;13.52;11.85;;;;;;;8.00;65.52;97338.56;10078332;29;20056;-83
2022/04/21 02:37:01;;;;;;;15.00;11.95;;;;;;;7.99;65.69;97334.34;10080171;29;20065;-83
2022/04/21 02:42:21;;;;;;;16.88;13.45;;;;;;;7.90;65.75;97329.53;10066796;29;20052;-83
2022/04/21 02:47:43;;;;;;;17.77;13.32;;;;;;;7.88;65.78;97334.94;10061774;29;20110;-82
2022/04/21 02:53:05;;;;;;;17.50;13.52;;;;;;;7.80;66.71;97326.03;10031521;29;20068;-83
2022/04/21 02:58:26;;;;;;;15.48;12.88;;;;;;;7.75;65.78;97314.63;10051313;29;20056;-82
2022/04/21 03:03:47;;;;;;;17.48;14.80;;;;;;;7.66;65.75;97309.81;10045518;29;20053;-83
2022/04/21 03:09:08;;;;;;;17.75;14.70;;;;;;;7.71;66.77;97310.81;10058880;29;20074;-82
2022/04/21 03:14:30;;;;;;;19.63;14.90;;;;;;;7.81;66.47;97319.13;10057930;29;20057;-83
2022/04/21 03:19:55;;;;;;;20.73;15.93;;;;;;;7.87;66.78;97311.25;10062486;29;20074;-83
2022/04/21 03:25:17;;;;;;;20.55;16.10;;;;;;;7.89;66.37;97314.16;10058517;29;20025;-82
2022/04/21 03:30:38;;;;;;;20.13;15.60;;;;;;;7.88;66.18;97298.81;10072474;29;20370;-82
2022/04/21 03:35:59;;;;;;;16.38;14.63;;;;;;;7.82;66.51;97292.84;10058012;29;20033;-81
2022/04/21 03:41:22;;;;;;;15.77;13.02;;;;;;;7.85;66.65;97300.00;10059056;29;20072;-83
2022/04/21 03:46:43;;;;;;;18.23;15.27;;;;;;;7.79;66.58;97302.34;10039955;29;20050;-83
2022/04/21 03:52:04;;;;;;;19.05;15.70;;;;;;;7.82;66.63;97301.19;10043585;29;20045;-81
2022/04/21 03:57:27;;;;;;;17.38;15.13;;;;;;;7.85;67.02;97316.66;10044480;29;20050;-82
2022/04/21 04:02:48;;;;;;;19.13;15.88;;;;;;;7.84;66.67;97309.66;10058551;29;20044;-82
2022/04/21 04:13:49;;;;;;;19.88;16.42;;;;;;;7.87;66.84;97311.25;10054553;29;20046;-82
2022/04/21 04:19:11;;;;;;;18.98;15.82;;;;;;;7.89;66.99;97305.81;10039477;29;20049;-82
2022/04/21 04:24:32;;;;;;;21.33;15.63;;;;;;;7.95;66.70;97320.16;10026134;29;20070;-83
2022/04/21 04:29:53;;;;;;;18.60;15.13;;;;;;;7.96;66.85;97319.56;10039902;29;20121;-82
2022/04/21 04:35:14;;;;;;;19.10;15.45;;;;;;;8.02;67.02;97330.41;10027599;29;20049;-81
2022/04/21 04:40:35;;;;;;;19.70;16.73;;;;;;;8.00;66.87;97333.00;10040289;29;20062;-82
2022/04/21 04:51:37;;;;;;;20.80;15.98;;;;;;;7.98;67.25;97341.22;10044537;29;20053;-80
2022/04/21 04:56:59;;;;;;;21.27;16.73;;;;;;;8.00;67.17;97342.06;10026581;29;20050;-83
2022/04/21 05:02:20;;;;;;;19.77;16.35;;;;;;;7.98;67.26;97339.16;10036847;29;20042;-83
2022/04/21 05:07:41;;;;;;;20.27;16.63;;;;;;;8.05;67.20;97343.09;10023935;29;20042;-83
2022/04/21 05:13:02;;;;;;;23.30;16.02;;;;;;;8.12;66.99;97336.66;10029010;29;20054;-83
2022/04/21 05:18:23;;;;;;;24.08;16.95;;;;;;;8.13;66.83;97338.13;10042669;29;20065;-83
2022/04/21 05:23:49;;;;;;;23.30;16.38;;;;;;;8.20;66.75;97342.81;10042051;29;20059;-82
2022/04/21 05:34:52;;;;;;;26.70;15.70;;;;;;;8.31;66.07;97353.31;10046973;29;20199;-82
2022/04/21 05:40:14;;;;;;;23.53;15.03;;;;;;;8.33;66.78;97345.09;10064239;29;20066;-83
2022/04/21 05:45:35;;;;;;;24.38;15.20;;;;;;;8.22;66.59;97348.50;10050851;29;20279;-82
2022/04/21 05:50:56;;;;;;;23.15;15.55;;;;;;;8.28;66.78;97348.91;10062878;29;20056;-83
2022/04/21 05:56:18;;;;;;;24.88;15.13;;;;;;;8.30;66.72;97346.28;10037954;29;20034;-80
2022/04/21 06:01:39;;;;;;;24.70;16.90;;;;;;;8.38;66.41;97342.63;10049680;29;20138;-82
2022/04/21 06:07:00;;;;;;;21.25;16.60;;;;;;;8.47;66.25;97339.06;10075965;29;20050;-84
2022/04/21 06:12:20;;;;;;;22.08;15.93;;;;;;;8.56;66.49;97350.16;10037391;29;20050;-82
2022/04/21 06:17:42;;;;;;;19.38;15.18;;;;;;;8.59;66.20;97353.84;10036879;29;20038;-83
2022/04/21 06:23:06;;;;;;;20.33;15.10;;;;;;;8.66;66.31;97339.00;10037784;29;20030;-84
2022/04/21 06:28:36;;;;;;;20.05;14.60;;;;;;;8.76;66.10;97339.69;10038903;29;20077;-82
2022/04/21 06:33:58;;;;;;;21.08;14.10;;;;;;;8.89;65.68;97346.81;10037225;29;20026;-84
2022/04/21 06:39:19;;;;;;;18.10;13.15;;;;;;;8.89;65.68;97336.41;10049278;29;20086;-83
2022/04/21 06:50:21;;;;;;;20.63;14.32;;;;;;;9.02;65.17;97342.78;10063496;29;20061;-83
2022/04/21 06:55:42;;;;;;;21.50;12.93;;;;;;;9.09;64.99;97353.03;10048549;29;20046;-83
2022/04/21 07:01:04;;;;;;;21.17;15.27;;;;;;;9.20;65.19;97354.41;10047816;29;20084;-83
2022/04/21 07:06:26;;;;;;;23.10;14.77;;;;;;;9.26;64.72;97366.69;10060411;29;20037;-83
2022/04/21 07:11:47;;;;;;;25.70;16.20;;;;;;;9.32;64.95;97363.56;10034989;29;20034;-83
2022/04/21 07:17:08;;;;;;;21.83;15.02;;;;;;;9.48;64.78;97358.34;10047845;29;20062;-83
2022/04/21 07:22:28;;;;;;;25.95;16.98;;;;;;;9.66;64.22;97367.91;10034987;29;20072;-83
2022/04/21 07:27:50;;;;;;;25.77;16.25;;;;;;;9.96;63.69;97360.75;10022534;29;20067;-85
2022/04/21 07:33:10;;;;;;;20.50;14.00;;;;;;;10.06;63.19;97375.34;10047762;29;20036;-83
2022/04/21 07:38:34;;;;;;;21.40;14.48;;;;;;;9.96;63.16;97383.78;10034102;29;20054;-83
2022/04/21 07:43:56;;;;;;;19.50;14.00;;;;;;;10.02;63.71;97377.84;10047323;29;20030;-83
2022/04/21 07:54:57;;;;;;;21.95;15.07;;;;;;;10.51;62.29;97380.91;10048319;29;20026;-83
2022/04/21 08:00:18;;;;;;;18.48;13.07;;;;;;;10.64;61.17;97388.00;10033665;29;20091;-83
2022/04/21 08:05:41;;;;;;;17.77;12.02;;;;;;;10.65;61.19;97386.66;10047372;29;20037;-84
2022/04/21 08:11:02;;;;;;;20.08;13.48;;;;;;;11.08;61.71;97382.31;10035172;29;20038;-84
2022/04/21 08:16:23;;;;;;;19.05;13.57;;;;;;;11.59;60.62;97384.56;10060025;29;20030;-82
2022/04/21 08:21:44;;;;;;;19.23;13.40;;;;;;;11.96;60.75;97384.56;10059793;29;20040;-83
2022/04/21 08:32:52;;;;;;;18.77;14.18;;;;;;;12.90;57.13;97379.91;10049265;29;20040;-82
2022/04/21 08:38:12;;;;;;;17.33;12.68;;;;;;;13.34;56.98;97378.00;10059930;29;20058;-81
2022/04/21 08:43:34;;;;;;;21.63;15.70;;;;;;;13.20;53.76;97382.84;10034040;29;20060;-82
2022/04/21 08:48:55;;;;;;;20.98;14.40;;;;;;;12.67;56.81;97382.88;10421261;24;20045;-81
2022/04/21 08:54:17;;;;;;;18.33;13.80;;;;;;;12.51;56.97;97382.72;10071386;29;20033;-83
2022/04/21 08:59:38;;;;;;;18.80;14.45;;;;;;;12.49;57.25;97385.44;10071418;29;20057;-83
2022/04/21 09:05:00;;;;;;;20.13;14.75;;;;;;;12.69;56.84;97390.66;10083490;29;20041;-82
2022/04/21 09:10:24;;;;;;;20.40;13.35;;;;;;;13.01;56.83;97377.63;10070253;29;20050;-82
2022/04/21 09:15:45;;;;;;;19.73;12.60;;;;;;;13.21;55.32;97381.50;10070091;29;20056;-79
2022/04/21 09:21:14;;;;;;;17.63;12.18;;;;;;;13.64;55.27;97378.78;10082176;29;20087;-82
2022/04/21 09:26:35;;;;;;;20.58;14.43;;;;;;;13.77;52.20;97382.19;10070127;29;20060;-81
2022/04/21 09:31:58;;;;;;;17.02;10.95;;;;;;;13.85;53.04;97374.91;10083182;29;20100;-81
2022/04/21 09:37:26;;;;;;;21.60;13.48;;;;;;;13.91;50.86;97377.28;10516450;23;20045;-82
2022/04/21 09:43:00;;;;;;;16.40;11.23;;;;;;;13.73;49.83;97371.50;10117330;29;20048;-80
2022/04/21 09:48:31;;;;;;;17.88;12.27;;;;;;;13.81;50.51;97376.78;10104271;29;20033;-81
2022/04/21 09:53:54;;;;;;;16.17;11.13;;;;;;;15.25;48.84;97365.84;10059106;29;20072;-81
2022/04/21 09:59:15;;;;;;;11.50;8.57;;;;;;;16.38;45.79;97355.00;10021411;29;20053;-83
2022/04/21 10:04:36;;;;;;;10.55;7.07;;;;;;;16.74;46.82;97366.97;10027828;29;20098;-84
2022/04/21 10:09:57;;;;;;;9.95;7.10;;;;;;;17.04;46.24;97356.09;10062501;29;20053;-85
2022/04/21 10:15:18;;;;;;;14.15;9.75;;;;;;;17.48;45.74;97356.94;10069392;29;20045;-84
2022/04/21 10:20:39;;;;;;;11.80;9.15;;;;;;;18.35;43.74;97353.44;10070513;29;20052;-84
2022/04/21 10:26:01;;;;;;;9.77;8.45;;;;;;;18.77;42.29;97347.63;10076439;29;20422;-84
2022/04/21 10:31:45;;;;;;;11.98;8.70;;;;;;;18.94;40.62;97343.91;10081857;29;20048;-84
2022/04/21 10:37:14;;;;;;;13.25;10.45;;;;;;;19.20;39.97;97346.72;10088952;29;20488;-84
2022/04/21 10:42:55;;;;;;;13.30;10.18;;;;;;;18.41;40.23;97341.59;10067901;29;20071;-84
2022/04/21 10:48:16;;;;;;;16.20;9.60;;;;;;;17.45;39.82;97344.84;10012452;29;20041;-85
2022/04/21 11:00:13;;;;;;;11.57;7.90;;;;;;;16.15;41.36;97344.97;10025591;29;20089;-84
2022/04/21 11:05:38;;;;;;;11.85;8.80;;;;;;;15.40;41.28;97348.22;10024220;29;20053;-83
2022/04/21 11:10:59;;;;;;;12.68;8.75;;;;;;;15.04;42.24;97356.53;9998762;29;20046;-81
2022/04/21 11:16:45;;;;;;;12.73;9.70;;;;;;;14.80;43.42;97347.03;9987029;29;20398;-79
2022/04/21 11:22:08;;;;;;;16.58;11.68;;;;;;;14.62;43.22;97337.78;10019182;29;20462;-78
2022/04/21 11:27:34;;;;;;;16.98;11.57;;;;;;;14.31;43.96;97344.81;10010852;29;20062;-81
2022/04/21 11:32:55;;;;;;;20.98;13.05;;;;;;;13.81;44.30;97346.66;10035973;29;20049;-82
2022/04/21 11:38:16;;;;;;;19.30;13.57;;;;;;;13.60;45.40;97338.59;10048600;29;20091;-82
2022/04/21 11:43:37;;;;;;;17.40;12.65;;;;;;;13.47;45.79;97342.88;10048900;29;20050;-82
2022/04/21 11:49:03;;;;;;;20.88;14.30;;;;;;;13.55;46.90;97343.28;10034983;29;20074;-82
2022/04/21 11:54:24;;;;;;;15.30;11.45;;;;;;;13.79;46.93;97335.31;10048174;29;20053;-82
2022/04/21 11:59:45;;;;;;;17.17;12.45;;;;;;;13.81;46.18;97335.44;10036954;29;20042;-81
2022/04/21 12:10:48;;;;;;;16.00;11.20;;;;;;;14.11;46.68;97336.16;10038294;29;20079;-82
2022/04/21 12:16:49;;;;;;;19.10;11.87;;;;;;;14.21;46.64;97336.63;10035226;29;20046;-82
2022/04/21 12:22:17;;;;;;;13.40;9.52;;;;;;;14.10;46.54;97336.78;10021427;29;20072;-82
2022/04/21 12:27:38;;;;;;;14.77;8.88;;;;;;;13.77;46.68;97328.88;10019999;29;20072;-82
2022/04/21 12:33:04;;;;;;;12.57;9.13;;;;;;;13.82;46.77;97320.06;10021242;29;20105;-82
2022/04/21 12:44:12;;;;;;;12.32;8.57;;;;;;;14.04;47.13;97314.78;10037382;29;20042;-82
2022/04/21 12:49:52;;;;;;;12.82;8.82;;;;;;;13.71;47.41;97320.91;10032495;29;20057;-81
2022/04/21 12:55:19;;;;;;;12.38;8.82;;;;;;;13.60;48.10;97316.16;10041573;29;20054;-82
2022/04/21 13:00:41;;;;;;;11.00;8.80;;;;;;;14.08;48.09;97317.03;10037175;29;20101;-82
2022/04/21 13:06:02;;;;;;;9.77;8.20;;;;;;;14.53;47.27;97320.56;10012478;29;20050;-82
2022/04/21 13:11:24;;;;;;;10.02;8.15;;;;;;;14.56;46.89;97312.97;10027191;29;20046;-82
2022/04/21 13:16:45;;;;;;;8.93;6.25;;;;;;;14.72;46.62;97310.88;10039872;29;20050;-82
2022/04/21 13:22:06;;;;;;;8.25;5.85;;;;;;;14.81;45.97;97304.25;10039827;29;20050;-82
2022/04/21 13:27:28;;;;;;;8.15;5.90;;;;;;;15.28;45.56;97311.16;10004877;29;20046;-78
2022/04/21 13:38:29;;;;;;;9.10;5.65;;;;;;;15.70;44.63;97295.34;10025140;29;20069;-79
2022/04/21 13:43:51;;;;;;;8.07;5.15;;;;;;;16.50;44.23;97291.41;9988032;29;20045;-82
2022/04/21 13:49:32;;;;;;;8.70;5.32;;;;;;;16.69;43.10;97287.19;10000575;29;20057;-81
2022/04/21 13:54:54;;;;;;;8.95;5.25;;;;;;;15.59;43.57;97293.47;10019759;29;20046;-79
2022/04/21 14:00:15;;;;;;;6.68;4.88;;;;;;;15.10;44.14;97294.97;10040008;29;20057;-79
2022/04/21 14:05:37;;;;;;;6.40;4.78;;;;;;;14.90;44.61;97296.91;10021841;29;20054;-80
2022/04/21 14:10:58;;;;;;;6.28;4.93;;;;;;;14.76;44.53;97296.28;10051701;29;20042;-81
2022/04/21 14:16:19;;;;;;;6.90;4.93;;;;;;;14.57;44.72;97300.38;10054146;29;20049;-82
2022/04/21 14:21:56;;;;;;;6.50;4.47;;;;;;;14.53;44.64;97292.50;10045552;29;20046;-82
2022/04/21 14:27:17;;;;;;;5.63;4.07;;;;;;;14.48;44.33;97290.16;10041820;29;20050;-82
2022/04/21 14:32:39;;;;;;;6.90;4.43;;;;;;;14.31;44.27;97285.84;10068224;29;20501;-82
2022/04/21 14:49:19;;;;;;;4.88;3.90;;;;;;;14.49;43.84;97288.78;10044915;29;20078;-82
2022/04/21 14:54:42;;;;;;;6.55;4.82;;;;;;;14.48;44.01;97299.28;10040796;29;20105;-81
2022/04/21 15:00:05;;;;;;;5.05;4.10;;;;;;;14.36;44.07;97295.16;10039367;29;20045;-82
2022/04/21 15:05:26;;;;;;;5.32;3.75;;;;;;;14.32;44.24;97296.44;10052307;29;20052;-82
2022/04/21 15:10:46;;;;;;;4.25;3.67;;;;;;;14.29;43.91;97294.19;10050636;29;20053;-82
2022/04/21 15:16:07;;;;;;;4.68;3.50;;;;;;;14.34;43.73;97290.19;10053355;29;20501;-82
2022/04/21 15:21:28;;;;;;;4.40;3.47;;;;;;;14.31;43.85;97285.84;10025364;29;20075;-81
2022/04/21 15:26:49;;;;;;;4.38;3.13;;;;;;;14.11;43.83;97290.53;10018325;29;20050;-81
2022/04/21 15:32:13;;;;;;;4.17;3.10;;;;;;;14.06;44.28;97284.00;10042166;29;20034;-81
2022/04/21 15:37:34;;;;;;;5.22;3.47;;;;;;;13.97;44.25;97290.56;10047980;29;20315;-82
2022/04/21 15:42:55;;;;;;;5.05;3.67;;;;;;;13.83;44.37;97292.72;10044870;29;20045;-82
2022/04/21 15:48:15;;;;;;;4.40;3.75;;;;;;;13.74;45.12;97294.41;10045230;29;20034;-83
2022/04/21 15:59:16;;;;;;;4.35;3.40;;;;;;;13.49;45.14;97283.38;10054978;29;20050;-81
2022/04/21 16:04:37;;;;;;;5.82;4.18;;;;;;;13.38;45.47;97288.47;10055545;29;20053;-82
2022/04/21 16:09:59;;;;;;;6.03;4.22;;;;;;;13.28;45.78;97285.19;10011536;29;20126;-81
2022/04/21 16:15:22;;;;;;;5.65;4.00;;;;;;;13.13;46.14;97280.22;10026376;29;20050;-81
2022/04/21 16:20:43;;;;;;;6.05;4.60;;;;;;;12.96;46.06;97283.53;10039606;29;20049;-81
2022/04/21 16:26:08;;;;;;;5.65;4.00;;;;;;;12.97;46.71;97277.31;10045416;29;20054;-80
2022/04/21 16:31:29;;;;;;;5.18;4.30;;;;;;;12.82;46.63;97267.44;10005267;29;20046;-81
2022/04/21 16:36:50;;;;;;;7.35;5.40;;;;;;;12.61;46.70;97276.88;10045591;29;20066;-82
2022/04/21 16:42:12;;;;;;;6.57;5.82;;;;;;;12.44;48.66;97279.44;10018069;29;20054;-83
2022/04/21 16:47:33;;;;;;;8.02;5.72;;;;;;;12.22;48.52;97271.31;10016843;29;20408;-79
2022/04/21 16:52:54;;;;;;;7.55;5.70;;;;;;;11.90;48.73;97277.97;10029630;29;20073;-86
2022/04/21 16:58:15;;;;;;;7.55;5.55;;;;;;;11.54;49.31;97274.56;10043368;29;20046;-86
2022/04/21 17:03:36;;;;;;;11.45;6.82;;;;;;;11.28;49.97;97275.88;10043998;29;20034;-84
2022/04/21 17:08:58;;;;;;;9.00;6.72;;;;;;;11.08;50.23;97269.84;10032179;29;20034;-84
2022/04/21 17:14:19;;;;;;;9.27;6.75;;;;;;;10.90;50.61;97261.13;10031750;29;20040;-83
2022/04/21 17:19:40;;;;;;;10.85;7.78;;;;;;;10.76;51.21;97271.47;10057198;29;20046;-85
2022/04/21 17:25:03;;;;;;;9.70;7.50;;;;;;;10.57;52.51;97270.41;10031784;29;20061;-85
2022/04/21 17:30:24;;;;;;;11.93;8.25;;;;;;;10.36;53.66;97267.72;10014733;29;20060;-83
2022/04/21 17:35:46;;;;;;;11.30;7.97;;;;;;;10.23;53.10;97271.84;10023078;29;20127;-85
2022/04/21 17:41:09;;;;;;;11.68;8.65;;;;;;;10.08;53.29;97258.34;10031113;29;20049;-85
2022/04/21 17:46:37;;;;;;;10.95;7.35;;;;;;;9.95;54.76;97276.38;10033983;29;20057;-83
2022/04/21 17:51:59;;;;;;;14.93;8.50;;;;;;;9.80;54.98;97278.88;10042772;29;20040;-85
2022/04/21 17:57:23;;;;;;;11.63;7.68;;;;;;;9.65;55.04;97283.56;10155713;23;20033;-76
2022/04/21 18:02:45;;;;;;;11.00;8.35;;;;;;;9.55;56.25;97268.97;10029854;29;20050;-84
2022/04/21 18:08:07;;;;;;;11.55;8.07;;;;;;;9.40;56.61;97275.69;9975270;29;20080;-83
2022/04/21 18:13:29;;;;;;;9.80;7.40;;;;;;;9.29;57.58;97273.59;10011968;29;20058;-80
2022/04/21 18:18:55;;;;;;;10.48;7.38;;;;;;;9.22;57.75;97282.88;10007009;29;20083;-80
2022/04/21 18:24:17;;;;;;;11.23;7.78;;;;;;;9.06;58.72;97276.22;9987977;29;20047;-81
2022/04/21 18:29:38;;;;;;;11.25;8.13;;;;;;;9.01;58.23;97285.66;9959811;29;20478;-78
2022/04/21 18:35:00;;;;;;;12.20;8.63;;;;;;;8.93;59.03;97280.28;9962870;29;20085;-79
2022/04/21 18:40:23;;;;;;;10.93;7.20;;;;;;;8.91;59.37;97282.94;9964872;29;20494;-80
2022/04/21 18:45:43;;;;;;;12.18;8.40;;;;;;;8.84;59.93;97275.50;9971298;29;20129;-80
2022/04/21 18:51:05;;;;;;;9.52;6.78;;;;;;;8.80;59.91;97278.75;9970453;29;20119;-80
2022/04/21 18:56:26;;;;;;;11.75;7.68;;;;;;;8.70;60.65;97274.56;9955981;29;20055;-80
2022/04/21 19:01:49;;;;;;;11.77;7.25;;;;;;;8.67;60.36;97282.03;9954526;29;20085;-79
2022/04/21 19:07:13;;;;;;;9.82;6.55;;;;;;;8.62;60.68;97274.00;9990903;29;20054;-78
2022/04/21 19:12:34;;;;;;;9.50;6.93;;;;;;;8.57;60.72;97278.56;9966570;29;20478;-78
2022/04/21 19:17:55;;;;;;;9.88;6.88;;;;;;;8.50;60.84;97268.38;9968490;29;20053;-78
2022/04/21 19:23:16;;;;;;;9.00;6.95;;;;;;;8.43;61.43;97264.44;9966827;29;20043;-79
2022/04/21 19:28:41;;;;;;;9.80;6.80;;;;;;;8.42;61.74;97268.53;9957105;29;20103;-80
2022/04/21 19:34:08;;;;;;;9.60;6.63;;;;;;;8.32;61.88;97259.47;9983850;29;20042;-78
2022/04/21 19:39:29;;;;;;;8.87;6.50;;;;;;;8.23;62.98;97252.63;10155593;24;20046;-84
2022/04/21 19:44:52;;;;;;;9.05;6.25;;;;;;;8.18;62.37;97239.75;10298762;24;20053;-82
2022/04/21 19:50:19;;;;;;;9.65;6.80;;;;;;;8.19;63.15;97248.84;10099323;29;20038;-83
2022/04/21 19:55:45;;;;;;;8.95;6.60;;;;;;;8.20;63.03;97248.28;10087216;29;20101;-83
2022/04/21 20:13:02;;;;;;;12.15;8.48;;;;;;;8.12;64.14;97250.50;10093213;29;20040;-83
2022/04/21 20:18:23;;;;;;;12.38;9.38;;;;;;;8.11;63.63;97235.13;10085607;29;20032;-82
2022/04/21 20:23:45;;;;;;;12.48;9.30;;;;;;;8.08;64.50;97233.50;10090648;29;20298;-80
2022/04/21 20:29:07;;;;;;;11.68;8.52;;;;;;;8.09;64.07;97229.41;10089748;29;20085;-79
2022/04/21 20:34:29;;;;;;;13.55;9.40;;;;;;;8.13;64.51;97231.75;10100085;29;20061;-83
2022/04/21 20:39:53;;;;;;;12.67;8.67;;;;;;;8.25;64.70;97238.88;10136049;29;20037;-83
2022/04/21 20:45:19;;;;;;;12.50;9.30;;;;;;;8.42;65.05;97237.22;10110383;29;20048;-83
2022/04/21 20:50:43;;;;;;;12.27;8.55;;;;;;;8.54;64.71;97238.03;10124293;29;20058;-83
2022/04/21 20:56:05;;;;;;;14.15;8.68;;;;;;;8.60;64.67;97239.19;10109864;29;20045;-84
2022/04/21 21:01:26;;;;;;;11.68;9.15;;;;;;;8.69;64.93;97232.09;10134791;29;20048;-82
2022/04/21 21:07:11;;;;;;;12.07;8.98;;;;;;;8.75;64.87;97226.19;10121697;29;20040;-84
2022/04/21 21:12:34;;;;;;;14.10;9.43;;;;;;;8.82;64.85;97223.22;10115044;29;20033;-83
2022/04/21 21:17:56;;;;;;;13.57;9.38;;;;;;;8.84;64.75;97223.34;10122358;29;20053;-84
2022/04/21 21:23:18;;;;;;;13.75;9.77;;;;;;;8.82;64.91;97217.66;10109407;29;20037;-83
2022/04/21 21:28:42;;;;;;;;;;;;;;;8.81;65.41;97234.94;10110000;29;20049;-85
2022/04/21 21:34:04;;;;;;;14.95;10.25;;;;;;;8.77;64.92;97234.66;10121448;29;19908;-83
2022/04/21 21:39:27;;;;;;;14.23;10.18;;;;;;;8.78;64.65;97230.56;10108796;29;20035;-83
2022/04/21 21:44:49;;;;;;;13.13;10.15;;;;;;;8.77;64.76;97224.25;10108327;29;20032;-84
2022/04/21 21:55:53;;;;;;;15.95;11.18;;;;;;;8.76;64.91;97214.47;10125964;29;20025;-83
2022/04/21 22:01:16;;;;;;;14.32;10.13;;;;;;;8.68;64.68;97216.72;10095403;29;20049;-84
2022/04/21 22:06:37;;;;;;;15.07;10.95;;;;;;;8.67;65.31;97209.69;10133181;29;20061;-82
2022/04/21 22:11:59;;;;;;;13.57;10.18;;;;;;;8.65;64.47;97208.81;10120587;29;20104;-84
2022/04/21 22:17:22;;;;;;;14.07;10.15;;;;;;;8.60;64.76;97200.22;10097589;29;20033;-84
2022/04/21 22:22:49;;;;;;;15.35;10.35;;;;;;;8.59;65.07;97189.69;10115051;29;20029;-84
2022/04/21 22:28:13;;;;;;;16.65;10.77;;;;;;;8.54;65.57;97187.97;10103480;29;20070;-81
2022/04/21 22:33:36;;;;;;;18.65;11.70;;;;;;;8.50;65.42;97185.66;10127942;29;20053;-83
2022/04/21 22:38:58;;;;;;;15.98;11.02;;;;;;;8.46;65.45;97188.16;10114828;29;20086;-83
2022/04/21 22:44:20;;;;;;;16.67;11.05;;;;;;;8.38;65.51;97190.38;10114494;29;20101;-81
2022/04/21 22:49:43;;;;;;;16.63;11.63;;;;;;;8.26;65.35;97179.16;10114351;29;20029;-84
2022/04/21 22:55:06;;;;;;;15.43;10.60;;;;;;;8.19;65.71;97173.78;10099083;29;20052;-80
2022/04/21 23:00:28;;;;;;;15.93;11.25;;;;;;;8.07;65.31;97165.34;10126501;29;20048;-83
2022/04/21 23:05:51;;;;;;;15.82;11.18;;;;;;;7.97;65.54;97159.81;10110381;29;20057;-84
2022/04/21 23:16:54;;;;;;;14.98;11.05;;;;;;;7.81;66.00;97158.72;10117624;29;20039;-82
2022/04/21 23:22:16;;;;;;;17.80;10.98;;;;;;;7.82;66.29;97145.56;10112895;29;20048;-81
2022/04/21 23:27:38;;;;;;;17.67;11.98;;;;;;;7.72;66.16;97143.56;10099158;29;20060;-81
2022/04/21 23:33:00;;;;;;;16.50;12.05;;;;;;;7.69;66.13;97139.16;10112657;29;20104;-83
2022/04/21 23:38:28;;;;;;;16.98;11.27;;;;;;;7.66;66.47;97132.03;10125329;29;20512;-82
2022/04/21 23:43:51;;;;;;;16.13;11.30;;;;;;;7.59;66.13;97115.53;10101327;29;20044;-83
2022/04/21 23:49:13;;;;;;;16.92;12.18;;;;;;;7.49;66.44;97117.59;10112245;29;20036;-84
2022/04/21 23:54:35;;;;;;;17.90;12.93;;;;;;;7.40;66.85;97110.75;10137641;29;20032;-82
2022/04/21 23:59:58;;;;;;;17.35;12.63;;;;;;;7.41;66.81;97103.88;10112154;29;20048;-84
